createdAt,value
2022-12-03T00:00:46.051Z,0.50
2022-12-03T00:03:12.938Z,0.50
2022-12-03T00:05:41.905Z,0.50
2022-12-03T00:08:14.780Z,0.50
2022-12-03T00:10:41.320Z,0.50
2022-12-03T00:13:07.799Z,0.60
2022-12-03T00:15:34.339Z,0.60
2022-12-03T00:18:00.894Z,0.60
2022-12-03T00:20:27.393Z,0.60
2022-12-03T00:22:53.886Z,0.60
2022-12-03T00:25:20.375Z,0.60
2022-12-03T00:27:46.879Z,0.50
2022-12-03T00:30:13.435Z,0.60
2022-12-03T00:32:39.974Z,0.50
2022-12-03T00:35:06.478Z,0.50
2022-12-03T00:37:35.028Z,0.50
2022-12-03T00:40:02.208Z,0.50
2022-12-03T00:42:28.693Z,0.50
2022-12-03T00:44:55.532Z,0.50
2022-12-03T00:47:22.260Z,0.50
2022-12-03T00:49:48.762Z,0.50
2022-12-03T00:52:15.241Z,0.50
2022-12-03T00:54:41.737Z,0.50
2022-12-03T00:57:08.238Z,0.50
2022-12-03T00:59:34.755Z,0.50
2022-12-03T01:02:01.256Z,0.40
2022-12-03T01:04:27.842Z,0.50
2022-12-03T01:06:54.372Z,0.40
2022-12-03T01:09:20.885Z,0.50
2022-12-03T01:11:47.352Z,0.50
2022-12-03T01:14:13.852Z,0.40
2022-12-03T01:16:40.445Z,0.40
2022-12-03T01:19:06.938Z,0.40
2022-12-03T01:21:33.550Z,0.50
2022-12-03T01:24:00.090Z,0.40
2022-12-03T01:26:26.662Z,0.50
2022-12-03T01:28:53.159Z,0.50
2022-12-03T01:31:38.610Z,0.50
2022-12-03T01:34:05.149Z,0.50
2022-12-03T01:36:31.662Z,0.50
2022-12-03T01:38:58.226Z,0.50
2022-12-03T01:41:24.778Z,0.50
2022-12-03T01:43:51.278Z,0.50
2022-12-03T01:46:17.860Z,0.50
2022-12-03T01:48:44.383Z,0.50
2022-12-03T01:51:10.893Z,0.50
2022-12-03T01:53:37.384Z,0.60
2022-12-03T01:56:03.851Z,0.60
2022-12-03T01:58:30.361Z,0.60
2022-12-03T02:00:56.843Z,0.60
2022-12-03T02:03:23.298Z,0.60
2022-12-03T02:05:49.829Z,0.60
2022-12-03T02:08:16.339Z,0.60
2022-12-03T02:10:42.920Z,0.60
2022-12-03T02:13:09.507Z,0.60
2022-12-03T02:15:36.007Z,0.60
2022-12-03T02:18:03.581Z,0.60
2022-12-03T02:20:30.124Z,0.60
2022-12-03T02:22:56.659Z,0.60
2022-12-03T02:25:23.138Z,0.60
2022-12-03T02:27:49.669Z,0.60
2022-12-03T02:30:16.156Z,0.60
2022-12-03T02:32:42.642Z,0.50
2022-12-03T02:35:09.163Z,0.50
2022-12-03T02:37:35.704Z,0.50
2022-12-03T02:40:02.216Z,0.40
2022-12-03T02:42:34.878Z,0.40
2022-12-03T02:45:05.451Z,0.40
2022-12-03T02:47:32.399Z,0.30
2022-12-03T02:49:58.890Z,0.30
2022-12-03T02:52:25.428Z,0.30
2022-12-03T02:54:52.211Z,0.30
2022-12-03T02:57:18.947Z,0.30
2022-12-03T02:59:45.448Z,0.30
2022-12-03T03:02:12.287Z,0.30
2022-12-03T03:04:39.728Z,0.40
2022-12-03T03:07:06.215Z,0.40
2022-12-03T03:09:32.683Z,0.40
2022-12-03T03:11:59.277Z,0.40
2022-12-03T03:14:25.764Z,0.40
2022-12-03T03:16:56.061Z,0.40
2022-12-03T03:19:22.756Z,0.40
2022-12-03T03:21:49.234Z,0.40
2022-12-03T03:24:15.774Z,0.30
2022-12-03T03:26:42.311Z,0.30
2022-12-03T03:29:08.780Z,0.30
2022-12-03T03:31:35.297Z,0.30
2022-12-03T03:34:01.831Z,0.30
2022-12-03T03:36:28.364Z,0.30
2022-12-03T03:38:54.887Z,0.30
2022-12-03T03:41:21.419Z,0.30
2022-12-03T03:43:47.896Z,0.30
2022-12-03T03:46:14.619Z,0.30
2022-12-03T03:48:41.231Z,0.30
2022-12-03T03:51:09.420Z,0.30
2022-12-03T03:53:35.977Z,0.30
2022-12-03T03:56:02.480Z,0.30
2022-12-03T03:58:29.013Z,0.30
2022-12-03T04:00:55.580Z,0.30
2022-12-03T04:03:22.118Z,0.30
2022-12-03T04:05:50.901Z,0.30
2022-12-03T04:08:17.541Z,0.30
2022-12-03T04:11:02.944Z,0.20
2022-12-03T04:13:29.481Z,0.20
2022-12-03T04:15:55.967Z,0.20
2022-12-03T04:18:41.367Z,0.20
2022-12-03T04:21:26.813Z,0.20
2022-12-03T04:23:53.369Z,0.20
2022-12-03T04:26:38.825Z,0.20
2022-12-03T04:29:05.487Z,0.20
2022-12-03T04:31:50.896Z,0.20
2022-12-03T04:34:36.203Z,0.20
2022-12-03T04:37:02.979Z,0.20
2022-12-03T04:39:29.522Z,0.30
2022-12-03T04:41:56.034Z,0.30
2022-12-03T04:44:38.052Z,0.20
2022-12-03T04:47:04.595Z,0.20
2022-12-03T04:49:31.095Z,0.20
2022-12-03T04:51:57.629Z,0.20
2022-12-03T04:54:24.381Z,0.20
2022-12-03T04:56:50.880Z,0.20
2022-12-03T04:59:17.439Z,0.20
2022-12-03T05:01:44.085Z,0.20
2022-12-03T05:04:10.694Z,0.20
2022-12-03T05:06:37.231Z,0.20
2022-12-03T05:09:03.771Z,0.20
2022-12-03T05:11:30.257Z,0.20
2022-12-03T05:13:56.763Z,0.20
2022-12-03T05:16:23.295Z,0.20
2022-12-03T05:18:49.874Z,0.20
2022-12-03T05:21:16.408Z,0.20
2022-12-03T05:23:46.143Z,0.20
2022-12-03T05:26:12.611Z,0.20
2022-12-03T05:28:39.176Z,0.20
2022-12-03T05:31:05.786Z,0.30
2022-12-03T05:33:32.333Z,0.20
2022-12-03T05:35:58.848Z,0.30
2022-12-03T05:38:25.330Z,0.20
2022-12-03T05:40:51.827Z,0.20
2022-12-03T05:43:18.422Z,0.30
2022-12-03T05:45:45.036Z,0.20
2022-12-03T05:48:11.573Z,0.20
2022-12-03T05:50:38.169Z,0.20
2022-12-03T05:53:04.684Z,0.20
2022-12-03T05:55:31.261Z,0.10
2022-12-03T05:57:57.742Z,0.10
2022-12-03T06:00:24.220Z,0.10
2022-12-03T06:02:50.895Z,0.10
2022-12-03T06:05:19.337Z,0.10
2022-12-03T06:07:45.886Z,0.10
2022-12-03T06:10:12.524Z,0.10
2022-12-03T06:12:38.989Z,0.10
2022-12-03T06:15:05.457Z,0.10
2022-12-03T06:17:31.923Z,0.10
2022-12-03T06:19:58.472Z,0.10
2022-12-03T06:22:24.964Z,0.10
2022-12-03T06:24:51.884Z,0.10
2022-12-03T06:27:18.633Z,-0.10
2022-12-03T06:29:45.143Z,-0.10
2022-12-03T06:32:11.657Z,-0.10
2022-12-03T06:34:38.195Z,0.00
2022-12-03T06:37:04.700Z,-0.10
2022-12-03T06:39:31.222Z,0.00
2022-12-03T06:41:57.702Z,0.00
2022-12-03T06:44:24.215Z,0.00
2022-12-03T06:46:50.784Z,0.00
2022-12-03T06:49:17.363Z,0.00
2022-12-03T06:51:43.824Z,-0.10
2022-12-03T06:54:10.371Z,-0.10
2022-12-03T06:56:43.384Z,-0.10
2022-12-03T06:59:12.144Z,0.00
2022-12-03T07:01:38.667Z,-0.10
2022-12-03T07:04:05.268Z,-0.10
2022-12-03T07:06:31.770Z,0.00
2022-12-03T07:08:58.314Z,-0.10
2022-12-03T07:11:31.082Z,-0.10
2022-12-03T07:14:03.072Z,-0.10
2022-12-03T07:16:31.464Z,-0.10
2022-12-03T07:18:58.043Z,-0.10
2022-12-03T07:21:24.623Z,-0.10
2022-12-03T07:23:51.127Z,-0.10
2022-12-03T07:26:17.643Z,-0.10
2022-12-03T07:28:44.148Z,-0.10
2022-12-03T07:31:10.749Z,-0.10
2022-12-03T07:33:37.275Z,-0.10
2022-12-03T07:36:03.784Z,-0.10
2022-12-03T07:38:30.275Z,-0.10
2022-12-03T07:40:56.787Z,-0.10
2022-12-03T07:43:23.453Z,-0.10
2022-12-03T07:45:50.057Z,-0.20
2022-12-03T07:48:16.531Z,-0.20
2022-12-03T07:50:43.061Z,-0.20
2022-12-03T07:53:09.605Z,-0.20
2022-12-03T07:55:36.148Z,-0.30
2022-12-03T07:58:02.639Z,-0.30
2022-12-03T08:00:29.171Z,-0.20
2022-12-03T08:02:55.782Z,-0.20
2022-12-03T08:05:22.314Z,-0.20
2022-12-03T08:07:48.956Z,-0.20
2022-12-03T08:10:15.574Z,-0.20
2022-12-03T08:12:42.132Z,-0.10
2022-12-03T08:15:08.636Z,-0.10
2022-12-03T08:17:36.463Z,-0.10
2022-12-03T08:20:03.011Z,0.00
2022-12-03T08:22:30.462Z,0.00
2022-12-03T08:24:57.000Z,0.00
2022-12-03T08:27:23.502Z,0.10
2022-12-03T08:29:50.038Z,0.10
2022-12-03T08:32:16.648Z,0.10
2022-12-03T08:34:43.283Z,0.10
2022-12-03T08:37:09.747Z,0.10
2022-12-03T08:39:37.798Z,0.10
2022-12-03T08:42:23.273Z,0.20
2022-12-03T08:44:49.813Z,0.20
2022-12-03T08:47:16.304Z,0.20
2022-12-03T08:49:42.801Z,0.20
2022-12-03T08:52:09.317Z,0.20
2022-12-03T08:54:35.846Z,0.10
2022-12-03T08:57:02.437Z,0.10
2022-12-03T08:59:29.221Z,0.10
2022-12-03T09:01:55.748Z,0.10
2022-12-03T09:04:22.385Z,0.10
2022-12-03T09:06:49.047Z,0.10
2022-12-03T09:09:15.587Z,0.10
2022-12-03T09:11:43.179Z,0.10
2022-12-03T09:14:12.553Z,0.10
2022-12-03T09:16:43.396Z,0.10
2022-12-03T09:19:09.900Z,0.10
2022-12-03T09:21:36.441Z,0.10
2022-12-03T09:24:02.972Z,0.20
2022-12-03T09:26:29.652Z,0.10
2022-12-03T09:28:56.148Z,0.10
2022-12-03T09:31:22.774Z,0.10
2022-12-03T09:33:49.475Z,0.20
2022-12-03T09:36:16.006Z,0.20
2022-12-03T09:38:46.252Z,0.20
2022-12-03T09:41:14.541Z,0.20
2022-12-03T09:44:03.507Z,0.20
2022-12-03T09:46:27.660Z,0.20
2022-12-03T09:48:55.441Z,0.20
2022-12-03T09:51:21.918Z,0.30
2022-12-03T09:53:48.536Z,0.30
2022-12-03T09:56:15.060Z,0.30
2022-12-03T09:58:41.584Z,0.30
2022-12-03T10:01:08.130Z,0.30
2022-12-03T10:03:34.631Z,0.40
2022-12-03T10:06:01.123Z,0.40
2022-12-03T10:08:32.017Z,0.40
2022-12-03T10:10:58.987Z,0.50
2022-12-03T10:13:26.164Z,0.50
2022-12-03T10:15:52.885Z,0.60
2022-12-03T10:18:19.376Z,0.60
2022-12-03T10:20:45.900Z,0.70
2022-12-03T10:23:12.416Z,0.70
2022-12-03T10:25:38.972Z,0.70
2022-12-03T10:28:05.560Z,0.70
2022-12-03T10:30:32.781Z,0.70
2022-12-03T10:33:02.456Z,0.70
2022-12-03T10:35:29.000Z,0.70
2022-12-03T10:37:55.479Z,0.70
2022-12-03T10:40:21.991Z,0.70
2022-12-03T10:42:48.459Z,0.80
2022-12-03T10:45:15.443Z,0.80
2022-12-03T10:47:42.041Z,0.80
2022-12-03T10:50:08.601Z,0.80
2022-12-03T10:52:35.063Z,0.80
2022-12-03T10:55:01.637Z,0.90
2022-12-03T10:57:28.137Z,0.90
2022-12-03T10:59:54.699Z,0.80
2022-12-03T11:02:21.775Z,0.80
2022-12-03T11:04:48.259Z,0.80
2022-12-03T11:07:15.052Z,0.80
2022-12-03T11:09:41.628Z,0.80
2022-12-03T11:12:08.154Z,0.80
2022-12-03T11:14:34.646Z,0.80
2022-12-03T11:17:01.144Z,0.80
2022-12-03T11:19:27.653Z,0.80
2022-12-03T11:21:54.143Z,0.80
2022-12-03T11:24:20.770Z,0.80
2022-12-03T11:26:47.269Z,0.80
2022-12-03T11:29:14.316Z,0.80
2022-12-03T11:31:40.988Z,0.90
2022-12-03T11:34:07.590Z,0.90
2022-12-03T11:37:00.399Z,0.90
2022-12-03T11:39:20.739Z,0.80
2022-12-03T11:41:47.215Z,0.80
2022-12-03T11:44:13.734Z,0.80
2022-12-03T11:46:40.361Z,0.80
2022-12-03T11:49:06.936Z,0.80
2022-12-03T11:51:33.437Z,0.80
2022-12-03T11:53:59.939Z,0.80
2022-12-03T11:56:26.416Z,0.80
2022-12-03T11:58:52.934Z,0.80
2022-12-03T12:01:19.497Z,0.80
2022-12-03T12:03:46.133Z,0.80
2022-12-03T12:06:12.676Z,0.70
2022-12-03T12:08:39.223Z,0.70
2022-12-03T12:11:05.758Z,0.80
2022-12-03T12:13:32.262Z,0.70
2022-12-03T12:15:58.814Z,0.80
2022-12-03T12:18:25.365Z,0.70
2022-12-03T12:20:51.867Z,0.70
2022-12-03T12:23:18.404Z,0.60
2022-12-03T12:25:52.425Z,0.60
2022-12-03T12:28:20.621Z,0.60
2022-12-03T12:30:47.136Z,0.60
2022-12-03T12:33:13.646Z,0.60
2022-12-03T12:35:40.174Z,0.70
2022-12-03T12:38:06.745Z,0.70
2022-12-03T12:40:33.894Z,0.70
2022-12-03T12:43:00.467Z,0.70
2022-12-03T12:45:26.975Z,0.80
2022-12-03T12:47:53.634Z,0.80
2022-12-03T12:50:20.236Z,0.80
2022-12-03T12:52:46.761Z,0.80
2022-12-03T12:55:14.803Z,0.80
2022-12-03T12:57:41.288Z,0.70
2022-12-03T13:00:07.830Z,0.70
2022-12-03T13:02:34.384Z,0.80
2022-12-03T13:05:00.914Z,0.80
2022-12-03T13:07:27.480Z,0.80
2022-12-03T13:09:56.796Z,0.80
2022-12-03T13:12:23.361Z,0.80
2022-12-03T13:14:51.972Z,0.80
2022-12-03T13:17:18.581Z,0.80
2022-12-03T13:19:48.458Z,0.70
2022-12-03T13:22:18.634Z,0.60
2022-12-03T13:24:45.251Z,0.70
2022-12-03T13:27:11.725Z,0.60
2022-12-03T13:29:38.227Z,0.60
2022-12-03T13:32:04.731Z,0.60
2022-12-03T13:34:31.556Z,0.60
2022-12-03T13:36:58.849Z,0.60
2022-12-03T13:39:25.517Z,0.60
2022-12-03T13:42:11.130Z,0.60
2022-12-03T13:44:37.614Z,0.60
2022-12-03T13:47:04.141Z,0.60
2022-12-03T13:49:30.656Z,0.60
2022-12-03T13:51:57.118Z,0.60
2022-12-03T13:54:23.682Z,0.60
2022-12-03T13:56:50.222Z,0.50
2022-12-03T13:59:19.301Z,0.50
2022-12-03T14:01:48.232Z,0.60
2022-12-03T14:04:14.850Z,0.50
2022-12-03T14:06:41.366Z,0.50
2022-12-03T14:09:07.932Z,0.50
2022-12-03T14:11:53.487Z,0.50
2022-12-03T14:14:20.073Z,0.40
2022-12-03T14:16:47.474Z,0.40
2022-12-03T14:19:14.193Z,0.40
2022-12-03T14:21:40.707Z,0.50
2022-12-03T14:24:07.262Z,0.50
2022-12-03T14:26:33.814Z,0.50
2022-12-03T14:29:03.443Z,0.50
2022-12-03T14:31:32.460Z,0.50
2022-12-03T14:33:59.213Z,0.50
2022-12-03T14:36:25.738Z,0.60
2022-12-03T14:38:52.276Z,0.60
2022-12-03T14:41:37.588Z,0.70
2022-12-03T14:44:04.119Z,0.60
2022-12-03T14:46:30.635Z,0.70
2022-12-03T14:48:57.157Z,0.60
2022-12-03T14:51:23.633Z,0.60
2022-12-03T14:53:50.161Z,0.60
2022-12-03T14:56:16.713Z,0.60
2022-12-03T14:58:43.261Z,0.60
2022-12-03T15:01:09.809Z,0.60
2022-12-03T15:03:36.330Z,0.60
2022-12-03T15:06:02.813Z,0.60
2022-12-03T15:08:29.403Z,0.60
2022-12-03T15:10:56.316Z,0.50
2022-12-03T15:13:23.152Z,0.50
2022-12-03T15:15:49.892Z,0.50
2022-12-03T15:18:16.506Z,0.50
2022-12-03T15:20:43.194Z,0.50
2022-12-03T15:23:14.078Z,0.50
2022-12-03T15:25:41.198Z,0.50
2022-12-03T15:28:07.883Z,0.40
2022-12-03T15:30:35.716Z,0.30
2022-12-03T15:33:02.599Z,0.40
2022-12-03T15:35:29.332Z,0.30
2022-12-03T15:37:55.850Z,0.30
2022-12-03T15:40:22.326Z,0.30
2022-12-03T15:42:48.819Z,0.40
2022-12-03T15:45:15.711Z,0.40
2022-12-03T15:47:42.234Z,0.30
2022-12-03T15:50:08.818Z,0.30
2022-12-03T15:52:35.329Z,0.30
2022-12-03T15:55:01.865Z,0.30
2022-12-03T15:57:29.514Z,0.20
2022-12-03T15:59:56.498Z,0.20
2022-12-03T16:02:23.374Z,0.20
2022-12-03T16:04:49.905Z,0.20
2022-12-03T16:07:16.369Z,0.20
2022-12-03T16:09:42.901Z,0.20
2022-12-03T16:12:09.420Z,0.20
2022-12-03T16:14:35.899Z,0.20
2022-12-03T16:17:02.575Z,0.20
2022-12-03T16:19:29.053Z,0.20
2022-12-03T16:21:55.549Z,0.20
2022-12-03T16:24:21.992Z,0.30
2022-12-03T16:26:48.441Z,0.30
2022-12-03T16:29:15.044Z,0.30
2022-12-03T16:31:41.641Z,0.30
2022-12-03T16:34:08.235Z,0.30
2022-12-03T16:36:34.688Z,0.40
2022-12-03T16:39:01.177Z,0.30
2022-12-03T16:41:27.726Z,0.30
2022-12-03T16:43:54.279Z,0.30
2022-12-03T16:46:21.109Z,0.30
2022-12-03T16:48:47.748Z,0.10
2022-12-03T16:51:14.216Z,0.10
2022-12-03T16:53:40.725Z,0.10
2022-12-03T16:56:07.283Z,0.10
2022-12-03T16:58:33.794Z,0.10
2022-12-03T17:01:00.335Z,0.20
2022-12-03T17:03:33.461Z,0.20
2022-12-03T17:06:00.442Z,0.10
2022-12-03T17:08:26.985Z,0.10
2022-12-03T17:10:53.617Z,0.00
2022-12-03T17:13:20.189Z,0.10
2022-12-03T17:15:46.763Z,0.10
2022-12-03T17:18:13.345Z,0.10
2022-12-03T17:20:39.814Z,0.10
2022-12-03T17:23:06.393Z,0.10
2022-12-03T17:25:32.895Z,0.10
2022-12-03T17:27:59.564Z,0.10
2022-12-03T17:32:53.891Z,0.10
2022-12-03T17:35:20.501Z,0.10
2022-12-03T17:37:46.991Z,0.10
2022-12-03T17:40:13.490Z,0.20
2022-12-03T17:42:39.943Z,0.20
2022-12-03T17:45:06.456Z,0.20
2022-12-03T17:47:32.976Z,0.20
2022-12-03T17:49:59.553Z,0.30
2022-12-03T17:52:26.130Z,0.30
2022-12-03T17:55:10.449Z,0.30
2022-12-03T17:57:39.327Z,0.30
2022-12-03T18:00:05.828Z,0.20
2022-12-03T18:02:32.381Z,0.30
2022-12-03T18:04:58.858Z,0.20
2022-12-03T18:07:25.540Z,0.20
2022-12-03T18:09:53.283Z,0.20
2022-12-03T18:12:19.938Z,0.20
2022-12-03T18:14:46.471Z,0.10
2022-12-03T18:17:14.251Z,0.00
2022-12-03T18:19:40.775Z,0.00
2022-12-03T18:22:07.336Z,0.00
2022-12-03T18:24:33.858Z,0.00
2022-12-03T18:27:00.372Z,0.00
2022-12-03T18:29:26.918Z,0.00
2022-12-03T18:31:53.598Z,0.00
2022-12-03T18:34:20.166Z,0.10
2022-12-03T18:36:46.652Z,0.10
2022-12-03T18:39:13.204Z,0.10
2022-12-03T18:41:39.768Z,0.00
2022-12-03T18:44:06.275Z,0.00
2022-12-03T18:49:20.838Z,-0.10
2022-12-03T18:51:48.453Z,-0.10
2022-12-03T18:54:15.432Z,-0.10
2022-12-03T18:56:41.987Z,-0.10
2022-12-03T18:59:08.673Z,-0.10
2022-12-03T19:01:35.169Z,-0.10
2022-12-03T19:04:01.677Z,-0.10
2022-12-03T19:06:29.206Z,-0.10
2022-12-03T19:08:55.715Z,-0.10
2022-12-03T19:11:22.259Z,-0.10
2022-12-03T19:13:48.803Z,-0.10
2022-12-03T19:16:16.941Z,0.00
2022-12-03T19:18:43.603Z,0.10
2022-12-03T19:21:10.197Z,0.10
2022-12-03T19:23:36.699Z,0.10
2022-12-03T19:26:03.209Z,0.10
2022-12-03T19:28:29.706Z,0.10
2022-12-03T19:30:56.250Z,0.10
2022-12-03T19:33:28.207Z,0.10
2022-12-03T19:35:55.140Z,0.20
2022-12-03T19:38:21.753Z,0.20
2022-12-03T19:40:48.319Z,0.10
2022-12-03T19:43:14.805Z,0.10
2022-12-03T19:45:41.407Z,0.10
2022-12-03T19:48:07.986Z,0.10
2022-12-03T19:50:34.540Z,0.10
2022-12-03T19:53:01.099Z,0.10
2022-12-03T19:55:27.680Z,0.10
2022-12-03T19:57:54.194Z,0.10
2022-12-03T20:00:20.688Z,0.10
2022-12-03T20:02:47.206Z,0.00
2022-12-03T20:05:13.797Z,0.00
2022-12-03T20:07:40.327Z,0.00
2022-12-03T20:10:06.939Z,0.10
2022-12-03T20:12:33.419Z,0.10
2022-12-03T20:14:59.976Z,0.10
2022-12-03T20:17:26.490Z,0.10
2022-12-03T20:19:53.365Z,0.10
2022-12-03T20:22:20.098Z,0.00
2022-12-03T20:24:46.563Z,0.00
2022-12-03T20:27:13.042Z,0.00
2022-12-03T20:29:39.601Z,0.00
2022-12-03T20:32:07.002Z,0.00
2022-12-03T20:34:35.708Z,0.10
2022-12-03T20:37:02.208Z,0.10
2022-12-03T20:39:28.699Z,0.10
2022-12-03T20:41:55.203Z,0.20
2022-12-03T20:44:21.710Z,0.20
2022-12-03T20:46:48.226Z,0.20
2022-12-03T20:49:14.705Z,0.30
2022-12-03T20:51:42.439Z,0.30
2022-12-03T20:54:08.916Z,0.30
2022-12-03T20:56:35.562Z,0.30
2022-12-03T20:59:02.306Z,0.40
2022-12-03T21:01:28.978Z,0.40
2022-12-03T21:03:55.591Z,0.40
2022-12-03T21:06:22.100Z,0.40
2022-12-03T21:08:48.622Z,0.40
2022-12-03T21:11:15.241Z,0.40
2022-12-03T21:13:43.344Z,0.40
2022-12-03T21:16:10.055Z,0.40
2022-12-03T21:18:36.627Z,0.40
2022-12-03T21:21:03.145Z,0.40
2022-12-03T21:23:30.333Z,0.40
2022-12-03T21:25:56.919Z,0.40
2022-12-03T21:28:23.418Z,0.40
2022-12-03T21:30:49.973Z,0.40
2022-12-03T21:33:16.558Z,0.40
2022-12-03T21:35:43.062Z,0.30
2022-12-03T21:38:09.555Z,0.30
2022-12-03T21:40:36.048Z,0.40
2022-12-03T21:43:02.589Z,0.40
2022-12-03T21:45:29.060Z,0.40
2022-12-03T21:47:55.577Z,0.40
2022-12-03T21:50:22.127Z,0.40
2022-12-03T21:52:50.371Z,0.40
2022-12-03T21:55:16.926Z,0.50
2022-12-03T21:57:43.453Z,0.50
2022-12-03T22:00:10.083Z,0.50
2022-12-03T22:02:36.653Z,0.50
2022-12-03T22:05:03.210Z,0.50
2022-12-03T22:07:29.798Z,0.50
2022-12-03T22:09:56.616Z,0.50
2022-12-03T22:12:23.334Z,0.50
2022-12-03T22:14:49.855Z,0.50
2022-12-03T22:17:16.525Z,0.50
2022-12-03T22:19:43.076Z,0.50
2022-12-03T22:22:09.599Z,0.50
2022-12-03T22:24:36.143Z,0.50
2022-12-03T22:27:03.906Z,0.50
2022-12-03T22:29:30.385Z,0.50
2022-12-03T22:31:56.879Z,0.40
2022-12-03T22:34:23.620Z,0.50
2022-12-03T22:36:50.169Z,0.50
2022-12-03T22:39:16.659Z,0.50
2022-12-03T22:41:43.162Z,0.50
2022-12-03T22:44:09.956Z,0.40
2022-12-03T22:46:36.510Z,0.50
2022-12-03T22:49:07.040Z,0.40
2022-12-03T22:51:33.977Z,0.40
2022-12-03T22:54:00.593Z,0.40
2022-12-03T22:56:27.085Z,0.40
2022-12-03T22:58:53.597Z,0.40
2022-12-03T23:01:20.258Z,0.40
2022-12-03T23:03:46.828Z,0.40
2022-12-03T23:06:13.355Z,0.40
2022-12-03T23:08:39.899Z,0.40
2022-12-03T23:11:06.420Z,0.30
2022-12-03T23:13:32.951Z,0.30
2022-12-03T23:15:59.499Z,0.30
2022-12-03T23:18:26.068Z,0.30
2022-12-03T23:20:52.784Z,0.40
2022-12-03T23:23:19.277Z,0.40
2022-12-03T23:25:45.791Z,0.40
2022-12-03T23:28:12.494Z,0.40
2022-12-03T23:30:39.079Z,0.40
2022-12-03T23:33:05.610Z,0.40
2022-12-03T23:35:32.098Z,0.30
2022-12-03T23:37:58.699Z,0.30
2022-12-03T23:40:25.169Z,0.30
2022-12-03T23:42:51.695Z,0.40
2022-12-03T23:45:18.184Z,0.40
2022-12-03T23:47:44.956Z,0.40
2022-12-03T23:50:11.513Z,0.40
2022-12-03T23:52:37.992Z,0.40
2022-12-03T23:55:04.522Z,0.40
2022-12-03T23:57:31.018Z,0.40
2022-12-03T23:59:57.708Z,0.40
